TA92 weather

HDC1 Heliport
Fort Worth, Texas, United States

Public forecast

Using degrees Fahrenheit for public forecast. Weather courtesy of forecast.io.

METAR (pilot weather report)

Closest report is Fort Worth Alliance Airport, 4.1 nm (7.6 km) N. Retrieved 2019/07/16 07:53 UTC (9 minutes ago):

KAFW 160753Z 17010KT 10SM CLR 27/23 A2989 RMK AO2 SLP105 T02720233

TAF (pilot weather forecast)

Closest forecast is Fort Worth Alliance Airport, 4.1 nm (7.6 km) N. Retrieved 2019/07/16 06:22 UTC (2 hours ago):

TAF KAFW 160520Z 1606/1706 17006KT P6SM FEW050 FM161500 19015KT P6SM FEW040